Time;durP1;ratioP1;P1;durP2;ratioP2;P2;SDS_P1;SDS_P2;PMS_P1;PMS_P2;Temp;Humidity;BMP_temperature;BMP_pressure;BME280_temperature;BME280_humidity;BME280_pressure;Samples;Min_cycle;Max_cycle;Signal;HPM_P1;HPM_P2
2023/01/26 00:00:50;;;;;;;28.00;16.00;;;;;;;1.09;60.20;101860.20;107919;1256;60460;-78
2023/01/26 00:03:19;;;;;;;29.00;16.90;;;;;;;1.13;60.21;101860.85;107919;1257;72012;-79
2023/01/26 00:05:47;;;;;;;24.70;16.00;;;;;;;1.17;59.96;101856.39;107864;1257;73106;-79
2023/01/26 00:08:15;;;;;;;27.30;16.90;;;;;;;1.17;59.93;101858.89;107840;1256;73855;-79
2023/01/26 00:10:49;;;;;;;24.90;15.90;;;;;;;1.18;59.93;101857.70;107872;1257;59653;-79
2023/01/26 00:13:18;;;;;;;24.50;14.90;;;;;;;1.19;59.87;101853.42;108008;1257;60380;-78
2023/01/26 00:15:46;;;;;;;25.10;14.90;;;;;;;1.23;59.87;101852.67;107944;1256;72088;-80
2023/01/26 00:18:15;;;;;;;25.70;16.90;;;;;;;1.19;59.88;101852.31;107839;1257;72235;-79
2023/01/26 00:20:43;;;;;;;26.80;16.80;;;;;;;1.14;59.93;101851.67;107942;1257;72949;-79
2023/01/26 00:23:12;;;;;;;29.10;17.80;;;;;;;1.07;59.85;101851.15;108055;1256;62419;-78
2023/01/26 00:25:40;;;;;;;29.10;18.20;;;;;;;1.04;59.99;101845.31;107743;1259;61377;-80
2023/01/26 00:28:08;;;;;;;26.90;17.50;;;;;;;1.06;59.90;101844.92;107850;1256;73309;-79
2023/01/26 00:30:36;;;;;;;29.80;17.40;;;;;;;1.11;60.00;101847.77;107996;1256;71888;-79
2023/01/26 00:33:08;;;;;;;25.20;14.80;;;;;;;1.18;60.04;101847.77;107991;1257;72459;-79
2023/01/26 00:35:36;;;;;;;25.30;15.70;;;;;;;1.15;59.89;101848.38;107848;1257;59618;-79
2023/01/26 00:38:04;;;;;;;28.40;16.80;;;;;;;1.13;59.85;101838.92;107705;1257;59644;-79
2023/01/26 00:40:34;;;;;;;28.90;17.10;;;;;;;1.12;59.76;101836.09;107932;1256;74264;-79
2023/01/26 00:43:02;;;;;;;28.00;17.60;;;;;;;1.16;59.98;101831.41;107983;1256;73686;-79
2023/01/26 00:45:31;;;;;;;31.10;17.50;;;;;;;1.23;59.93;101827.08;107956;1256;71531;-79
2023/01/26 00:47:59;;;;;;;29.20;17.90;;;;;;;1.30;59.87;101825.79;107879;1256;59529;-79
2023/01/26 00:50:30;;;;;;;29.30;17.80;;;;;;;1.36;59.93;101818.73;107898;1256;60356;-79
2023/01/26 00:52:58;;;;;;;25.80;15.60;;;;;;;1.43;59.83;101816.42;108006;1256;71846;-80
2023/01/26 00:55:31;;;;;;;24.20;14.50;;;;;;;1.45;59.65;101814.28;107998;1257;71605;-79
2023/01/26 00:58:00;;;;;;;21.80;14.30;;;;;;;1.45;59.61;101818.13;107830;1257;73592;-79
2023/01/26 01:00:30;;;;;;;28.60;17.50;;;;;;;1.42;59.52;101822.20;107839;1257;60173;-79
2023/01/26 01:02:59;;;;;;;25.50;16.50;;;;;;;1.35;59.52;101816.26;107838;1257;61195;-79
2023/01/26 01:05:28;;;;;;;32.60;19.70;;;;;;;1.28;59.49;101817.02;107979;1257;73052;-80
2023/01/26 01:07:57;;;;;;;29.90;17.70;;;;;;;1.18;59.36;101812.61;107820;1257;72007;-79
2023/01/26 01:10:26;;;;;;;29.50;18.50;;;;;;;1.17;59.39;101807.27;107875;1257;70631;-79
2023/01/26 01:12:55;;;;;;;28.40;18.50;;;;;;;1.20;59.85;101805.04;107866;1257;60751;-79
2023/01/26 01:15:25;;;;;;;29.50;17.60;;;;;;;1.24;59.72;101803.98;107831;1256;60614;-80
2023/01/26 01:17:53;;;;;;;27.80;16.70;;;;;;;1.28;59.74;101801.63;107886;1257;70988;-79
2023/01/26 01:20:26;;;;;;;28.00;17.10;;;;;;;1.32;59.73;101799.08;107766;1257;72819;-79
2023/01/26 01:22:54;;;;;;;27.30;16.80;;;;;;;1.37;59.63;101792.01;107660;1257;73237;-79
2023/01/26 01:25:22;;;;;;;30.20;18.90;;;;;;;1.43;59.79;101788.02;107793;1256;60181;-79
2023/01/26 01:27:51;;;;;;;32.40;18.50;;;;;;;1.48;59.65;101784.52;107878;1256;61709;-79
2023/01/26 01:30:19;;;;;;;29.60;18.60;;;;;;;1.47;59.63;101780.05;107789;1257;72469;-79
2023/01/26 01:32:50;;;;;;;32.20;19.30;;;;;;;1.48;59.69;101778.17;107799;1257;72193;-79
2023/01/26 01:35:19;;;;;;;32.80;19.00;;;;;;;1.53;59.53;101779.42;107813;1258;72382;-79
2023/01/26 01:37:47;;;;;;;28.80;18.20;;;;;;;1.52;59.63;101777.58;107732;1257;60701;-79
2023/01/26 01:40:17;;;;;;;29.30;17.80;;;;;;;1.49;59.67;101774.02;107905;1257;60317;-79
2023/01/26 01:42:48;;;;;;;29.60;17.90;;;;;;;1.42;59.71;101772.13;107958;1256;72424;-79
2023/01/26 01:45:26;;;;;;;30.50;18.50;;;;;;;1.35;59.92;101771.33;107948;1257;72780;-80
2023/01/26 01:48:01;;;;;;;33.60;19.20;;;;;;;1.36;60.01;101767.55;107960;1257;72483;-78
2023/01/26 01:50:31;;;;;;;33.40;19.60;;;;;;;1.42;60.00;101765.88;107854;1256;62217;-76
2023/01/26 01:53:01;;;;;;;32.60;19.30;;;;;;;1.46;59.92;101763.09;107939;1256;59644;-76
2023/01/26 01:55:29;;;;;;;32.10;19.90;;;;;;;1.46;59.90;101761.75;107894;1260;72532;-77
2023/01/26 01:57:59;;;;;;;27.50;17.80;;;;;;;1.41;59.81;101758.00;107903;1256;73943;-75
2023/01/26 02:00:34;;;;;;;25.60;16.50;;;;;;;1.40;59.81;101754.65;107702;1262;74479;-77
2023/01/26 02:03:27;;;;;;;30.50;18.30;;;;;;;1.35;59.94;101751.36;107894;1256;61026;-77
2023/01/26 02:06:29;;;;;;;31.10;19.60;;;;;;;1.26;59.91;101748.16;108283;1256;59263;-77
2023/01/26 02:13:00;;;;;;;28.90;17.80;;;;;;;1.08;60.52;101742.48;107699;1257;72617;-78
2023/01/26 02:15:58;;;;;;;28.60;17.40;;;;;;;1.02;60.84;101735.61;107744;1257;74834;-78
2023/01/26 02:18:39;;;;;;;29.90;18.50;;;;;;;0.98;60.76;101734.42;107803;1256;60454;-77
2023/01/26 02:21:36;;;;;;;31.70;18.20;;;;;;;0.92;60.92;101735.70;107961;1256;59650;-78
2023/01/26 02:25:00;;;;;;;30.40;18.70;;;;;;;0.88;61.24;101730.23;107903;1257;73601;-77
2023/01/26 02:27:52;;;;;;;;;;;;;;;;;;;;;
2023/01/26 02:30:40;;;;;;;30.50;18.70;;;;;;;0.89;61.34;101725.05;107786;1256;72423;-76
2023/01/26 02:33:37;;;;;;;30.20;18.40;;;;;;;0.88;61.41;101717.06;107918;1256;60428;-77
2023/01/26 02:36:37;;;;;;;30.30;18.20;;;;;;;0.85;61.68;101717.55;107940;1256;59164;-77
2023/01/26 02:39:59;;;;;;;27.60;16.80;;;;;;;0.85;61.64;101713.02;107780;1257;74796;-78
2023/01/26 02:43:12;;;;;;;30.20;18.80;;;;;;;0.86;61.64;101712.57;107741;1257;71861;-77
2023/01/26 02:46:29;;;;;;;31.20;19.20;;;;;;;0.84;61.63;101706.66;107904;1257;72157;-77
2023/01/26 02:52:30;;;;;;;30.70;18.80;;;;;;;0.77;62.00;101698.69;107875;1257;60294;-76
2023/01/26 02:55:38;;;;;;;29.80;17.80;;;;;;;0.76;62.05;101696.98;107969;1260;72273;-76
2023/01/26 02:58:59;;;;;;;;;;;;;;;;;;;;;
2023/01/26 03:01:49;;;;;;;26.70;16.40;;;;;;;0.76;62.21;101695.20;107972;1257;72792;-77
2023/01/26 03:04:33;;;;;;;31.00;18.10;;;;;;;0.74;62.12;101696.31;107826;1257;62178;-77
2023/01/26 03:07:46;;;;;;;31.70;18.30;;;;;;;0.72;62.35;101694.96;107908;1258;60992;-77
2023/01/26 03:11:09;;;;;;;;;;;;;;;;;;;;;
2023/01/26 03:14:05;;;;;;;31.10;18.20;;;;;;;0.74;62.47;101685.14;107828;1256;73051;-77
2023/01/26 03:29:25;;;;;;;;;;;;;;;0.67;62.43;101671.86;108054;1257;73043;-77
2023/01/26 03:32:11;;;;;;;36.00;19.80;;;;;;;0.61;62.52;101674.55;107843;1262;72496;-77
2023/01/26 03:35:21;;;;;;;34.30;19.50;;;;;;;0.60;62.59;101673.14;107912;1257;62130;-76
2023/01/26 03:38:12;;;;;;;30.70;19.20;;;;;;;0.62;62.78;101667.74;107908;1257;60607;-75
2023/01/26 03:56:44;;;;;;;32.10;18.50;;;;;;;0.88;62.49;101671.86;107845;1257;74752;-77
2023/01/26 03:59:55;;;;;;;34.10;19.80;;;;;;;0.94;62.54;101668.04;107796;1257;72072;-77
2023/01/26 04:09:57;;;;;;;31.70;18.40;;;;;;;1.05;62.33;101667.56;107820;1257;60537;-78
2023/01/26 04:12:39;;;;;;;36.40;19.10;;;;;;;1.08;62.24;101671.56;107810;1257;74190;-78
2023/01/26 04:21:59;;;;;;;35.50;20.30;;;;;;;1.05;62.14;101680.74;107784;1257;61241;-77
2023/01/26 04:25:31;;;;;;;37.00;21.50;;;;;;;0.95;62.21;101685.10;107893;1257;60306;-77
2023/01/26 04:29:07;;;;;;;35.90;19.70;;;;;;;0.89;62.46;101685.95;107438;1265;72649;-77
2023/01/26 04:32:02;;;;;;;32.10;19.40;;;;;;;0.84;62.48;101682.44;107448;1263;72559;-77
2023/01/26 04:35:17;;;;;;;;;;;;;;;;;;;;;
2023/01/26 04:38:21;;;;;;;31.70;18.60;;;;;;;0.84;62.79;101686.88;107402;1268;60329;-77
2023/01/26 04:41:07;;;;;;;39.20;21.10;;;;;;;0.80;62.71;101689.58;107379;1263;61137;-77
2023/01/26 04:43:55;;;;;;;39.90;21.50;;;;;;;0.79;63.10;101686.16;107392;1263;74171;-77
2023/01/26 04:46:41;;;;;;;40.20;21.70;;;;;;;0.78;62.93;101684.39;107372;1262;73201;-77
2023/01/26 04:49:57;;;;;;;;;;;;;;;;;;;;;
2023/01/26 04:52:59;;;;;;;45.50;23.90;;;;;;;0.65;63.34;101676.72;107890;1257;61677;-77
2023/01/26 04:55:56;;;;;;;48.20;27.70;;;;;;;0.62;63.42;101674.29;108035;1256;59982;-78
2023/01/26 04:59:25;;;;;;;44.80;25.80;;;;;;;0.63;63.65;101674.04;108477;1256;72543;-77
2023/01/26 05:02:39;;;;;;;41.20;24.10;;;;;;;0.63;63.75;101673.28;108537;1257;72832;-77
2023/01/26 05:05:32;;;;;;;42.40;24.10;;;;;;;0.65;63.81;101667.65;107910;1259;72680;-77
2023/01/26 05:08:17;;;;;;;41.60;23.60;;;;;;;0.67;63.65;101668.14;107839;1257;61155;-78
2023/01/26 05:11:14;;;;;;;41.60;23.70;;;;;;;0.69;63.91;101666.84;108009;1257;60332;-78
2023/01/26 05:14:21;;;;;;;44.20;21.90;;;;;;;0.73;64.01;101667.36;107957;1257;72342;-79
2023/01/26 05:17:28;;;;;;;;;;;;;;;0.73;64.00;101662.80;107998;1257;73479;-77
2023/01/26 05:20:28;;;;;;;42.20;23.50;;;;;;;0.73;63.86;101664.54;107901;1257;73693;-75
2023/01/26 05:23:27;;;;;;;40.20;22.60;;;;;;;0.75;64.15;101668.40;107905;1257;59601;-77
2023/01/26 05:26:27;;;;;;;40.40;23.80;;;;;;;0.75;64.17;101663.50;107972;1257;60459;-78
2023/01/26 05:29:31;;;;;;;44.90;24.90;;;;;;;0.76;64.19;101664.03;108004;1257;75526;-78
2023/01/26 05:32:36;;;;;;;46.50;25.70;;;;;;;0.78;64.09;101666.63;107823;1257;72387;-77
2023/01/26 05:35:58;;;;;;;;;;;;;;;;;;;;;
2023/01/26 05:38:47;;;;;;;49.20;26.90;;;;;;;0.79;64.25;101656.88;107881;1257;60411;-77
2023/01/26 05:41:46;;;;;;;47.90;27.50;;;;;;;0.80;64.14;101655.42;107966;1259;60611;-78
2023/01/26 05:45:03;;;;;;;47.40;27.00;;;;;;;0.79;64.35;101652.27;107936;1258;72985;-78
2023/01/26 05:48:01;;;;;;;;;;;;;;;;;;;;;
2023/01/26 05:50:53;;;;;;;;;;;;;;;;;;;;;
2023/01/26 05:54:04;;;;;;;;;;;;;;;;;;;;;
2023/01/26 05:56:52;;;;;;;42.50;23.70;;;;;;;0.79;64.27;101663.87;107549;1257;61191;-80
2023/01/26 05:59:53;;;;;;;43.40;23.80;;;;;;;0.84;64.22;101659.42;107834;1257;72302;-81
2023/01/26 06:02:56;;;;;;;39.50;22.90;;;;;;;0.93;64.31;101657.48;107725;1258;72056;-79
2023/01/26 06:05:58;;;;;;;44.20;24.10;;;;;;;0.94;64.44;101659.06;107844;1262;71400;-79
2023/01/26 06:08:59;;;;;;;36.40;21.30;;;;;;;1.00;64.29;101659.38;107840;1260;59728;-79
2023/01/26 06:23:37;;;;;;;37.80;23.20;;;;;;;1.35;64.12;101665.95;105637;1284;612746;-80
2023/01/26 06:26:06;;;;;;;36.30;22.70;;;;;;;1.78;63.27;101667.05;107638;1257;116907;-81
2023/01/26 06:28:38;;;;;;;34.60;21.50;;;;;;;1.73;63.04;101665.52;107864;1259;59389;-82
2023/01/26 06:31:07;;;;;;;36.20;20.60;;;;;;;1.66;62.90;101661.90;107752;1260;72638;-80
2023/01/26 06:33:37;;;;;;;32.70;19.60;;;;;;;1.60;63.08;101654.95;107784;1260;72400;-79
2023/01/26 06:36:09;;;;;;;32.80;19.50;;;;;;;1.55;63.31;101653.42;107833;1260;71102;-79
2023/01/26 06:38:38;;;;;;;30.30;18.60;;;;;;;1.52;63.08;101653.62;107723;1259;62079;-80
2023/01/26 06:41:09;;;;;;;32.50;19.40;;;;;;;1.51;63.05;101660.00;107851;1260;59590;-80
2023/01/26 06:43:42;;;;;;;29.50;17.70;;;;;;;1.50;63.10;101667.99;107813;1260;73187;-80
2023/01/26 06:46:14;;;;;;;30.90;17.70;;;;;;;1.46;63.19;101666.38;107751;1261;72361;-79
2023/01/26 06:48:43;;;;;;;30.00;17.00;;;;;;;1.44;63.26;101671.94;107796;1260;73375;-79
2023/01/26 06:51:19;;;;;;;29.30;18.20;;;;;;;1.43;63.19;101668.33;107683;1260;60505;-79
2023/01/26 06:53:55;;;;;;;27.40;16.40;;;;;;;1.42;63.43;101669.19;107904;1260;59624;-79
2023/01/26 06:56:46;;;;;;;31.90;16.70;;;;;;;1.40;63.44;101669.36;107812;1259;73339;-79
2023/01/26 06:59:34;;;;;;;33.30;17.50;;;;;;;1.35;63.55;101670.23;107818;1260;71831;-79
2023/01/26 07:02:28;;;;;;;27.00;15.80;;;;;;;1.31;63.65;101666.09;107784;1262;73223;-80
2023/01/26 07:04:57;;;;;;;28.30;16.70;;;;;;;1.31;64.03;101665.93;107751;1260;59648;-79
2023/01/26 08:46:12;;;;;;;31.80;20.30;;;;;;;1.52;75.02;101652.34;105944;1279;614259;-74
2023/01/26 08:48:40;;;;;;;29.20;18.90;;;;;;;2.35;72.12;101644.62;107322;1264;126227;-73
2023/01/26 08:51:07;;;;;;;29.40;18.70;;;;;;;2.49;71.47;101645.86;107486;1268;59392;-73
2023/01/26 08:53:34;;;;;;;31.90;18.90;;;;;;;2.59;70.95;101640.92;107463;1264;73330;-73
2023/01/26 08:56:04;;;;;;;29.60;18.80;;;;;;;2.70;70.51;101639.73;107454;1264;72826;-73
2023/01/26 08:58:32;;;;;;;29.90;18.60;;;;;;;2.79;70.16;101637.89;107441;1265;73947;-73
2023/01/26 09:01:06;;;;;;;32.70;20.00;;;;;;;2.83;69.45;101633.77;107398;1266;59321;-72
2023/01/26 09:03:33;;;;;;;31.30;20.70;;;;;;;2.85;69.09;101627.10;107397;1268;59462;-73
2023/01/26 09:06:00;;;;;;;39.20;22.50;;;;;;;2.90;68.64;101622.02;107385;1266;71370;-72
2023/01/26 09:08:27;;;;;;;37.00;22.90;;;;;;;2.94;68.14;101617.99;107404;1266;72992;-73
2023/01/26 09:10:54;;;;;;;38.80;24.20;;;;;;;2.98;67.74;101617.55;107355;1265;73456;-74
2023/01/26 09:13:21;;;;;;;41.70;25.10;;;;;;;3.03;67.44;101618.80;107415;1266;61036;-75
2023/01/26 09:16:17;;;;;;;37.90;23.50;;;;;;;3.12;67.08;101617.80;107444;1265;62501;-72
2023/01/26 09:18:44;;;;;;;35.30;22.80;;;;;;;3.17;66.71;101617.49;107389;1266;73286;-73
2023/01/26 09:21:11;;;;;;;37.30;22.40;;;;;;;3.21;66.20;101620.36;107414;1265;73880;-72
2023/01/26 09:23:38;;;;;;;38.40;23.00;;;;;;;3.26;65.89;101615.98;107440;1266;72373;-73
2023/01/26 09:26:06;;;;;;;37.70;22.80;;;;;;;3.34;65.72;101608.91;107510;1264;61396;-74
2023/01/26 09:28:33;;;;;;;34.90;20.80;;;;;;;3.40;65.33;101608.74;107467;1264;60426;-72
2023/01/26 09:31:04;;;;;;;32.70;19.50;;;;;;;3.46;65.14;101612.08;107417;1265;70826;-72
2023/01/26 09:33:32;;;;;;;30.40;20.00;;;;;;;3.60;64.64;101608.41;108080;1256;72976;-73
2023/01/26 09:36:04;;;;;;;35.60;20.00;;;;;;;4.00;63.75;101608.02;107915;1256;71886;-73
2023/01/26 09:38:31;;;;;;;31.60;19.50;;;;;;;4.19;63.13;101601.25;107949;1256;59525;-73
2023/01/26 09:41:06;;;;;;;32.60;20.70;;;;;;;4.29;62.56;101601.61;107824;1257;60798;-72
2023/01/26 09:43:52;;;;;;;31.20;18.80;;;;;;;4.36;62.04;101594.05;107837;1257;72986;-73
2023/01/26 09:46:47;;;;;;;32.90;19.60;;;;;;;4.44;61.56;101593.59;107842;1257;71893;-73
2023/01/26 09:49:26;;;;;;;35.40;19.70;;;;;;;4.54;61.27;101593.06;107894;1257;73436;-73
2023/01/26 09:52:01;;;;;;;34.60;20.80;;;;;;;4.68;60.91;101586.20;107825;1257;60883;-72
2023/01/26 09:54:35;;;;;;;32.90;19.70;;;;;;;4.89;60.78;101584.02;107823;1257;60679;-72
2023/01/26 09:57:51;;;;;;;31.30;17.20;;;;;;;5.07;60.39;101582.50;107849;1258;74001;-72
2023/01/26 10:00:22;;;;;;;28.40;18.40;;;;;;;5.22;59.61;101584.79;107792;1257;72985;-72
2023/01/26 10:03:04;;;;;;;27.70;17.70;;;;;;;5.27;59.05;101577.99;107882;1257;72401;-72
2023/01/26 10:05:37;;;;;;;28.60;17.60;;;;;;;5.28;58.38;101567.66;107778;1257;60796;-72
2023/01/26 10:08:12;;;;;;;30.10;17.70;;;;;;;5.26;58.08;101562.80;107821;1262;60029;-72
2023/01/26 10:10:46;;;;;;;28.00;16.60;;;;;;;5.26;57.68;101563.95;107812;1257;71503;-71
2023/01/26 10:13:14;;;;;;;31.40;17.90;;;;;;;5.23;57.26;101558.55;107896;1258;72425;-70
2023/01/26 10:15:42;;;;;;;30.80;17.90;;;;;;;5.17;57.04;101557.59;107821;1256;71936;-69
2023/01/26 10:18:21;;;;;;;28.20;16.90;;;;;;;5.08;56.75;101558.72;107852;1257;58981;-70
2023/01/26 10:20:51;;;;;;;27.50;16.50;;;;;;;4.98;56.60;101556.88;107806;1257;60769;-69
2023/01/26 10:23:23;;;;;;;25.70;15.70;;;;;;;4.88;56.38;101553.33;107841;1257;73175;-69
2023/01/26 10:25:50;;;;;;;26.90;15.50;;;;;;;4.81;56.44;101552.73;107838;1257;73577;-69
2023/01/26 10:28:33;;;;;;;27.30;15.50;;;;;;;4.81;56.23;101549.56;107719;1257;73359;-70
2023/01/26 10:31:01;;;;;;;27.10;16.20;;;;;;;4.79;55.94;101547.88;107834;1257;59911;-71
2023/01/26 10:33:36;;;;;;;31.20;17.10;;;;;;;4.78;55.94;101547.92;107857;1257;59265;-70
2023/01/26 10:36:05;;;;;;;28.10;15.50;;;;;;;4.79;55.85;101537.98;107873;1258;72574;-70
2023/01/26 10:38:32;;;;;;;24.80;13.80;;;;;;;4.82;55.71;101530.59;107858;1257;71463;-70
2023/01/26 10:41:00;;;;;;;24.20;13.90;;;;;;;4.84;55.46;101521.04;107813;1257;72842;-70
2023/01/26 10:43:27;;;;;;;23.30;13.70;;;;;;;4.87;55.27;101518.08;107898;1257;59730;-70
2023/01/26 10:45:54;;;;;;;25.10;14.00;;;;;;;4.91;54.57;101516.68;107828;1257;59639;-71
2023/01/26 10:48:25;;;;;;;25.80;14.10;;;;;;;4.94;54.29;101517.22;107824;1257;74274;-70
2023/01/26 10:50:52;;;;;;;26.50;14.60;;;;;;;5.00;53.96;101518.39;107786;1257;71550;-70
2023/01/26 10:53:23;;;;;;;26.20;14.80;;;;;;;5.07;53.90;101525.27;107835;1257;73526;-70
2023/01/26 10:56:11;;;;;;;26.00;14.10;;;;;;;5.13;53.59;101523.10;107842;1257;60592;-70
2023/01/26 10:58:43;;;;;;;27.90;15.70;;;;;;;5.14;53.33;101517.89;107788;1257;61554;-70
2023/01/26 11:01:14;;;;;;;28.80;16.20;;;;;;;5.13;53.19;101513.04;107831;1258;72533;-70
2023/01/26 11:03:42;;;;;;;22.60;13.00;;;;;;;5.12;53.17;101512.22;107829;1259;71882;-70
2023/01/26 11:06:13;;;;;;;25.00;14.40;;;;;;;5.14;53.18;101507.79;107865;1257;74418;-70
2023/01/26 11:08:41;;;;;;;25.90;14.10;;;;;;;5.17;53.20;101503.80;107850;1262;59995;-70
2023/01/26 11:11:25;;;;;;;28.00;16.00;;;;;;;5.21;53.14;101505.00;107842;1257;59020;-71
2023/01/26 11:14:14;;;;;;;29.10;16.30;;;;;;;5.22;52.93;101508.70;107826;1257;73002;-71
2023/01/26 11:16:46;;;;;;;29.60;15.50;;;;;;;5.20;52.78;101501.70;107840;1257;72241;-70
2023/01/26 11:19:21;;;;;;;28.30;16.10;;;;;;;5.16;52.55;101493.73;107806;1257;71730;-70
2023/01/26 11:22:08;;;;;;;32.00;17.10;;;;;;;4.78;52.87;101498.64;107804;1262;59294;-70
2023/01/26 11:24:49;;;;;;;32.60;16.70;;;;;;;4.61;53.30;101491.42;107834;1258;59754;-70
2023/01/26 11:27:34;;;;;;;27.00;15.60;;;;;;;4.58;53.39;101496.21;107853;1257;73321;-71
2023/01/26 11:30:18;;;;;;;28.60;15.80;;;;;;;4.57;53.39;101496.85;107868;1256;74006;-70
2023/01/26 11:33:12;;;;;;;28.80;15.60;;;;;;;4.61;53.50;101494.60;107936;1256;72871;-69
2023/01/26 11:35:55;;;;;;;26.70;15.00;;;;;;;4.63;53.42;101495.54;107845;1256;59733;-70
2023/01/26 11:38:39;;;;;;;27.90;16.40;;;;;;;4.61;53.20;101489.88;107936;1256;59618;-70
2023/01/26 11:41:30;;;;;;;27.70;15.10;;;;;;;4.60;53.25;101489.45;107953;1257;74263;-70
2023/01/26 11:44:13;;;;;;;26.70;15.00;;;;;;;4.56;53.01;101482.11;107823;1257;73489;-68
2023/01/26 11:46:55;;;;;;;22.50;13.30;;;;;;;4.51;53.02;101483.02;107818;1257;70756;-70
2023/01/26 11:49:32;;;;;;;27.50;14.80;;;;;;;4.45;52.97;101484.81;107810;1257;59703;-69
2023/01/26 11:52:08;;;;;;;23.30;13.80;;;;;;;4.39;52.90;101485.71;107856;1257;61021;-69
2023/01/26 11:54:42;;;;;;;28.20;13.80;;;;;;;4.34;53.03;101485.79;107832;1257;72584;-70
2023/01/26 11:57:21;;;;;;;27.10;14.60;;;;;;;4.29;53.01;101484.34;107880;1257;73477;-69
2023/01/26 11:59:55;;;;;;;23.40;12.70;;;;;;;4.26;53.17;101484.96;107824;1257;72392;-70
2023/01/26 12:02:29;;;;;;;27.80;14.90;;;;;;;4.21;53.08;101484.27;107833;1258;60308;-69
2023/01/26 12:05:02;;;;;;;27.10;14.40;;;;;;;4.18;53.30;101479.87;107852;1257;59485;-69
2023/01/26 12:07:31;;;;;;;27.20;14.00;;;;;;;4.20;53.34;101477.95;107849;1257;73669;-71
2023/01/26 12:09:59;;;;;;;24.70;13.90;;;;;;;4.19;53.31;101474.38;107880;1257;73976;-69
2023/01/26 12:12:42;;;;;;;25.40;13.80;;;;;;;4.18;53.39;101472.02;107876;1259;73505;-69
2023/01/26 12:15:12;;;;;;;26.10;14.60;;;;;;;4.18;53.59;101467.45;107813;1257;59755;-69
2023/01/26 12:17:58;;;;;;;26.10;14.00;;;;;;;4.19;53.59;101465.71;107884;1257;61142;-70
2023/01/26 12:20:31;;;;;;;24.30;13.90;;;;;;;4.20;53.74;101462.95;107830;1259;73708;-69
2023/01/26 12:23:07;;;;;;;23.40;12.70;;;;;;;4.17;53.80;101460.08;107850;1257;72956;-69
2023/01/26 12:25:50;;;;;;;24.20;14.00;;;;;;;4.14;53.67;101460.70;107820;1257;72415;-69
2023/01/26 12:28:44;;;;;;;25.50;14.10;;;;;;;4.08;53.72;101465.16;107737;1256;61247;-68
2023/01/26 12:31:28;;;;;;;23.70;14.10;;;;;;;4.04;53.84;101460.02;107861;1257;60423;-71
2023/01/26 12:33:55;;;;;;;25.00;13.40;;;;;;;4.04;54.15;101459.89;107858;1256;73701;-69
2023/01/26 12:36:31;;;;;;;23.10;13.70;;;;;;;4.02;53.95;101455.28;108020;1256;71785;-70
2023/01/26 12:39:32;;;;;;;24.00;13.30;;;;;;;4.00;53.99;101461.20;107987;1256;73903;-70
2023/01/26 12:42:11;;;;;;;22.60;12.50;;;;;;;4.00;54.09;101460.35;107950;1256;59833;-70
2023/01/26 12:44:43;;;;;;;20.20;11.50;;;;;;;3.97;54.31;101455.73;108037;1256;59724;-68
2023/01/26 12:47:31;;;;;;;22.50;13.50;;;;;;;3.93;54.25;101455.86;108023;1256;73950;-71
2023/01/26 12:50:22;;;;;;;22.30;12.70;;;;;;;3.91;54.41;101461.45;107903;1257;72271;-69
2023/01/26 12:53:05;;;;;;;19.40;12.10;;;;;;;3.86;54.50;101460.94;107827;1262;73385;-69
2023/01/26 12:55:55;;;;;;;22.80;13.60;;;;;;;3.80;54.54;101459.13;107841;1257;61799;-69
2023/01/26 12:58:24;;;;;;;22.90;13.70;;;;;;;3.75;54.75;101451.03;107870;1257;59622;-71
2023/01/26 13:01:00;;;;;;;24.80;13.50;;;;;;;3.75;54.83;101450.02;107840;1257;74260;-70
2023/01/26 13:03:43;;;;;;;24.50;13.10;;;;;;;3.75;55.13;101443.98;107881;1257;72116;-70
2023/01/26 13:06:13;;;;;;;23.20;13.90;;;;;;;3.75;55.05;101438.88;107884;1257;72635;-69
2023/01/26 13:08:56;;;;;;;20.80;12.20;;;;;;;3.74;55.03;101428.83;107803;1257;60418;-69
2023/01/26 13:11:43;;;;;;;22.80;13.50;;;;;;;3.71;55.10;101428.80;107864;1257;60631;-70
2023/01/26 13:14:30;;;;;;;22.60;12.10;;;;;;;3.69;55.27;101440.02;107847;1258;74838;-70
2023/01/26 13:17:16;;;;;;;23.10;13.20;;;;;;;3.66;55.17;101442.67;107828;1257;73925;-71
2023/01/26 13:19:45;;;;;;;25.10;14.90;;;;;;;3.65;55.50;101448.59;107784;1257;71187;-71
2023/01/26 13:22:24;;;;;;;27.70;14.90;;;;;;;3.64;55.54;101447.32;107834;1257;60672;-70
2023/01/26 13:24:54;;;;;;;28.10;16.00;;;;;;;3.61;55.63;101444.16;107749;1257;60463;-70
2023/01/26 13:27:38;;;;;;;26.40;15.10;;;;;;;3.62;55.76;101442.20;107845;1259;73978;-71
2023/01/26 13:30:27;;;;;;;25.00;15.30;;;;;;;3.61;55.95;101448.88;107943;1256;72789;-69
2023/01/26 13:33:10;;;;;;;24.30;13.40;;;;;;;3.61;56.05;101454.64;108007;1256;73118;-71
2023/01/26 13:35:37;;;;;;;27.60;15.30;;;;;;;3.59;56.07;101456.91;107893;1256;60433;-69
2023/01/26 13:38:21;;;;;;;26.90;14.80;;;;;;;3.56;56.17;101451.19;107901;1256;61042;-70
2023/01/26 13:40:49;;;;;;;29.30;16.00;;;;;;;3.51;56.28;101447.48;107891;1258;73602;-71
2023/01/26 13:43:35;;;;;;;31.20;16.40;;;;;;;3.46;56.27;101451.09;108066;1256;73832;-70
2023/01/26 13:46:24;;;;;;;28.80;17.00;;;;;;;3.41;56.42;101456.61;107957;1258;73616;-70
2023/01/26 13:48:53;;;;;;;31.70;18.10;;;;;;;3.38;56.78;101451.90;107989;1256;61087;-69
2023/01/26 17:58:39;;;;;;;30.90;18.00;;;;;;;2.35;68.21;101401.41;106054;1280;613754;-68
2023/01/26 18:01:08;;;;;;;29.60;17.40;;;;;;;3.26;65.20;101394.74;107385;1264;144115;-67
2023/01/26 18:03:41;;;;;;;32.20;18.40;;;;;;;3.33;64.44;101394.80;108356;1253;59465;-67
2023/01/26 18:06:10;;;;;;;;;;;;;;;3.39;63.92;101397.06;108406;1254;72267;-67
2023/01/26 18:08:41;;;;;;;29.70;17.20;;;;;;;3.42;63.32;101394.20;108467;1254;73096;-65
2023/01/26 18:11:11;;;;;;;30.10;16.90;;;;;;;3.44;63.01;101390.28;108342;1252;73444;-65
2023/01/26 18:13:40;;;;;;;31.10;17.00;;;;;;;3.46;62.50;101385.91;108356;1254;59448;-66
2023/01/26 18:16:11;;;;;;;30.20;17.90;;;;;;;3.50;62.24;101387.25;108272;1254;60490;-65
2023/01/26 18:18:40;;;;;;;33.50;18.00;;;;;;;3.52;61.94;101387.55;108288;1254;72745;-66
2023/01/26 18:21:18;;;;;;;28.70;16.50;;;;;;;3.50;61.55;101382.81;108357;1254;73027;-66
2023/01/26 18:23:47;;;;;;;32.40;17.30;;;;;;;3.49;61.20;101383.95;108308;1254;72935;-66
2023/01/26 18:26:16;;;;;;;28.40;16.60;;;;;;;3.47;61.13;101384.02;108319;1252;60864;-65
2023/01/26 18:28:45;;;;;;;31.70;18.20;;;;;;;3.48;60.96;101388.82;108246;1253;59371;-66
2023/01/26 18:31:19;;;;;;;33.20;17.60;;;;;;;3.51;60.85;101391.48;108298;1253;72304;-66
2023/01/26 18:33:50;;;;;;;30.10;17.10;;;;;;;3.55;60.69;101392.41;108303;1254;71607;-65
2023/01/26 18:36:19;;;;;;;33.40;18.10;;;;;;;3.59;60.55;101393.75;108307;1253;72511;-65
2023/01/26 18:38:59;;;;;;;30.60;17.00;;;;;;;3.59;60.27;101392.63;108269;1253;59962;-66
2023/01/26 18:41:29;;;;;;;30.30;18.10;;;;;;;3.59;60.21;101390.41;108274;1253;60220;-65
2023/01/26 18:43:58;;;;;;;31.60;17.80;;;;;;;3.60;60.09;101380.59;108381;1253;72140;-67
2023/01/26 18:46:29;;;;;;;30.50;16.70;;;;;;;3.60;60.13;101384.94;108419;1254;71071;-66
2023/01/26 18:49:02;;;;;;;30.80;16.70;;;;;;;3.60;59.86;101385.83;108373;1253;72028;-65
2023/01/26 18:51:33;;;;;;;32.00;18.20;;;;;;;3.60;59.76;101383.44;108384;1254;59586;-66
2023/01/26 18:54:03;;;;;;;29.90;17.00;;;;;;;3.61;59.74;101379.70;108366;1252;60163;-66
2023/01/26 18:56:32;;;;;;;29.60;17.40;;;;;;;3.62;59.65;101377.84;108335;1256;73907;-66
2023/01/26 18:59:01;;;;;;;32.30;17.30;;;;;;;3.62;59.47;101381.34;108291;1253;73392;-68
2023/01/26 19:01:29;;;;;;;29.40;17.30;;;;;;;3.61;59.59;101380.23;108265;1256;71573;-65
2023/01/26 19:03:58;;;;;;;32.50;18.00;;;;;;;3.54;59.53;101381.31;108295;1254;61723;-66
2023/01/26 19:06:27;;;;;;;30.30;17.00;;;;;;;3.38;59.93;101378.39;108331;1254;61567;-65
2023/01/26 19:08:59;;;;;;;29.80;17.20;;;;;;;3.51;59.58;101373.56;108209;1254;74249;-67